Terminal Aerodrome Forecast
Issued by NWS Charleston, WV

Home | Current Version | Previous Version | Text Only | Print | Product List | Glossary On
Versions: 1 2 3 4 5 6 7 8 9 10 11 12 13 14 15 16 17 18 19 20 21 22 23 24 25 26
000
FTUS41 KRLX 171946 AAC
TAFPKB
TAF AMD
KPKB 171946Z 1720/1818 04004KT 1/4SM +SN FG OVC007
      TEMPO 1722/1802 2SM -SN BR OVC012
     FM180200 24004KT 5SM -RA OVC015
     FM180400 25004KT P6SM OVC008
     FM181000 26007KT P6SM BKN035=

USA.gov is the U.S. government's official web portal to all federal, state and local government web resources and services.